Time;durP1;ratioP1;P1;durP2;ratioP2;P2;SDS_P1;SDS_P2;PMS_P1;PMS_P2;Temp;Humidity;BMP_temperature;BMP_pressure;BME280_temperature;BME280_humidity;BME280_pressure;Samples;Min_cycle;Max_cycle;Signal;HPM_P1;HPM_P2
2023/07/31 00:00:51;;;;;;;0.93;0.93;;;;;;;;;;5966775;27;20050;-76
2023/07/31 00:03:41;;;;;;;1.02;0.88;;;;;;;;;;5961564;28;20046;-78
2023/07/31 00:06:32;;;;;;;3.08;1.55;;;;;;;;;;5964474;28;20047;-77
2023/07/31 00:09:23;;;;;;;1.88;1.08;;;;;;;;;;5967365;28;20545;-77
2023/07/31 00:12:14;;;;;;;1.23;0.70;;;;;;;;;;5967751;28;20056;-76
2023/07/31 00:15:06;;;;;;;2.30;1.08;;;;;;;;;;5968206;28;20051;-76
2023/07/31 00:17:57;;;;;;;1.98;0.90;;;;;;;;;;5968118;28;20054;-76
2023/07/31 00:20:48;;;;;;;1.05;0.80;;;;;;;;;;5967630;28;20042;-76
2023/07/31 00:23:39;;;;;;;1.63;0.88;;;;;;;;;;5963455;28;20048;-77
2023/07/31 00:26:30;;;;;;;2.80;1.75;;;;;;;;;;5964086;28;20050;-77
2023/07/31 00:29:21;;;;;;;2.35;1.15;;;;;;;;;;5967579;28;20051;-79
2023/07/31 00:32:11;;;;;;;9.07;1.00;;;;;;;;;;5967836;28;20058;-78
2023/07/31 00:35:04;;;;;;;0.55;0.40;;;;;;;;;;5967832;28;20051;-78
2023/07/31 00:37:57;;;;;;;1.45;1.35;;;;;;;;;;5968426;28;20429;-76
2023/07/31 00:40:48;;;;;;;0.82;0.80;;;;;;;;;;5949325;28;20051;-77
2023/07/31 00:43:39;;;;;;;1.52;1.25;;;;;;;;;;5942845;28;20044;-76
2023/07/31 00:46:30;;;;;;;1.30;0.65;;;;;;;;;;5939977;28;20039;-77
2023/07/31 00:49:22;;;;;;;0.70;0.70;;;;;;;;;;5943901;28;20058;-77
2023/07/31 00:52:13;;;;;;;1.10;1.00;;;;;;;;;;5943899;28;20044;-77
2023/07/31 00:55:04;;;;;;;1.20;0.70;;;;;;;;;;5943686;28;20052;-77
2023/07/31 00:57:56;;;;;;;0.95;0.80;;;;;;;;;;5925908;28;20048;-77
2023/07/31 01:00:47;;;;;;;0.68;0.60;;;;;;;;;;5942613;28;20513;-76
2023/07/31 01:03:39;;;;;;;1.52;1.17;;;;;;;;;;5934936;28;20123;-76
2023/07/31 01:06:55;;;;;;;0.80;0.80;;;;;;;;;;5918734;28;20044;-79
2023/07/31 01:10:15;;;;;;;2.50;0.77;;;;;;;;;;5923776;28;20043;-78
2023/07/31 01:13:07;;;;;;;1.20;1.05;;;;;;;;;;5922404;28;20043;-77
2023/07/31 01:15:58;;;;;;;2.60;0.85;;;;;;;;;;5940309;28;20040;-77
2023/07/31 01:18:49;;;;;;;1.48;1.17;;;;;;;;;;5933771;28;20045;-77
2023/07/31 01:22:15;;;;;;;1.95;0.77;;;;;;;;;;5937502;28;20413;-76
2023/07/31 01:25:26;;;;;;;2.55;1.00;;;;;;;;;;5922486;28;20138;-77
2023/07/31 01:28:23;;;;;;;0.85;0.85;;;;;;;;;;5921676;28;20048;-77
2023/07/31 01:31:20;;;;;;;1.63;1.10;;;;;;;;;;5921815;28;20055;-77
2023/07/31 01:34:13;;;;;;;1.02;0.82;;;;;;;;;;5921692;28;20052;-76
2023/07/31 01:37:04;;;;;;;0.75;0.60;;;;;;;;;;5938574;28;20044;-78
2023/07/31 01:39:56;;;;;;;0.80;0.73;;;;;;;;;;5922049;28;20151;-77
2023/07/31 01:42:46;;;;;;;1.45;0.65;;;;;;;;;;5939334;28;20051;-77
2023/07/31 01:45:38;;;;;;;0.93;0.60;;;;;;;;;;5939061;28;20048;-77
2023/07/31 01:48:29;;;;;;;1.50;1.05;;;;;;;;;;5938717;28;20048;-77
2023/07/31 01:51:20;;;;;;;1.25;0.98;;;;;;;;;;5920649;28;20052;-76
2023/07/31 01:54:11;;;;;;;1.67;0.82;;;;;;;;;;5938552;28;20048;-76
2023/07/31 01:57:01;;;;;;;4.15;1.30;;;;;;;;;;5938746;28;20054;-79
2023/07/31 01:59:53;;;;;;;1.88;0.98;;;;;;;;;;5938734;28;20048;-78
2023/07/31 02:02:44;;;;;;;0.50;0.50;;;;;;;;;;5937989;28;20047;-78
2023/07/31 02:05:34;;;;;;;0.73;0.73;;;;;;;;;;5938198;28;20132;-78
2023/07/31 02:08:25;;;;;;;0.40;0.40;;;;;;;;;;5937433;28;20040;-78
2023/07/31 02:11:16;;;;;;;1.25;0.73;;;;;;;;;;5937573;28;20135;-79
2023/07/31 02:14:07;;;;;;;0.80;0.70;;;;;;;;;;5936195;28;20052;-77
2023/07/31 02:16:58;;;;;;;0.60;0.60;;;;;;;;;;5938163;28;20126;-78
2023/07/31 02:19:48;;;;;;;1.23;1.13;;;;;;;;;;5937412;28;20048;-78
2023/07/31 02:22:39;;;;;;;0.80;0.55;;;;;;;;;;5937168;28;20055;-78
2023/07/31 02:25:30;;;;;;;1.58;0.80;;;;;;;;;;5937482;28;20410;-77
2023/07/31 02:28:21;;;;;;;0.63;0.63;;;;;;;;;;5937127;28;20056;-78
2023/07/31 02:31:13;;;;;;;0.47;0.47;;;;;;;;;;5937611;28;20164;-77
2023/07/31 02:34:03;;;;;;;1.17;1.08;;;;;;;;;;5936988;28;20050;-79
2023/07/31 02:36:55;;;;;;;0.65;0.65;;;;;;;;;;5937762;28;20048;-77
2023/07/31 02:39:45;;;;;;;2.55;1.77;;;;;;;;;;5936976;28;20054;-77
2023/07/31 02:42:36;;;;;;;1.42;1.23;;;;;;;;;;5937095;28;20047;-78
2023/07/31 02:45:27;;;;;;;1.10;0.90;;;;;;;;;;5936924;28;20467;-76
2023/07/31 02:48:18;;;;;;;1.50;0.80;;;;;;;;;;5936712;28;20044;-77
2023/07/31 02:51:09;;;;;;;1.05;0.60;;;;;;;;;;5936477;28;20058;-78
2023/07/31 02:54:00;;;;;;;0.50;0.50;;;;;;;;;;5936962;28;20048;-78
2023/07/31 02:56:51;;;;;;;0.90;0.88;;;;;;;;;;5936516;28;20624;-78
2023/07/31 02:59:41;;;;;;;2.45;0.77;;;;;;;;;;5936227;28;20368;-78
2023/07/31 03:02:32;;;;;;;0.45;0.38;;;;;;;;;;5936178;28;20040;-77
2023/07/31 03:05:23;;;;;;;2.30;0.70;;;;;;;;;;5935950;28;20063;-77
2023/07/31 03:08:14;;;;;;;1.38;0.93;;;;;;;;;;5917893;28;20032;-77
2023/07/31 03:11:05;;;;;;;4.43;0.80;;;;;;;;;;5935492;28;20135;-79
2023/07/31 03:13:56;;;;;;;1.95;1.13;;;;;;;;;;5934378;28;20058;-77
2023/07/31 03:16:46;;;;;;;0.98;0.60;;;;;;;;;;5936478;28;20047;-78
2023/07/31 03:19:37;;;;;;;1.02;0.50;;;;;;;;;;5917569;28;20047;-78
2023/07/31 03:22:28;;;;;;;1.20;1.10;;;;;;;;;;5933258;28;20056;-78
2023/07/31 03:25:19;;;;;;;0.40;0.40;;;;;;;;;;5933282;28;20052;-77
2023/07/31 03:28:10;;;;;;;0.57;0.47;;;;;;;;;;5934765;28;20068;-78
2023/07/31 03:31:01;;;;;;;2.13;0.85;;;;;;;;;;5935382;28;20048;-77
2023/07/31 03:33:51;;;;;;;1.33;1.10;;;;;;;;;;5917184;28;20482;-78
2023/07/31 03:36:42;;;;;;;0.30;0.30;;;;;;;;;;5934646;28;20055;-78
2023/07/31 03:39:33;;;;;;;1.90;0.70;;;;;;;;;;5934585;28;20044;-78
2023/07/31 03:42:24;;;;;;;2.03;1.23;;;;;;;;;;5944028;28;20118;-78
2023/07/31 03:45:15;;;;;;;0.68;0.65;;;;;;;;;;5958265;28;20509;-77
2023/07/31 03:48:07;;;;;;;0.82;0.70;;;;;;;;;;5958200;28;20048;-78
2023/07/31 03:50:58;;;;;;;2.75;1.05;;;;;;;;;;5958975;28;20056;-77
2023/07/31 03:53:49;;;;;;;1.25;0.88;;;;;;;;;;5958412;28;20473;-78
2023/07/31 03:56:40;;;;;;;0.40;0.40;;;;;;;;;;5958042;28;20048;-78
2023/07/31 03:59:31;;;;;;;0.65;0.65;;;;;;;;;;5958077;28;20413;-79
2023/07/31 04:02:22;;;;;;;1.52;0.60;;;;;;;;;;5958092;28;20051;-78
2023/07/31 04:05:12;;;;;;;0.65;0.63;;;;;;;;;;5958201;28;20486;-78
2023/07/31 04:08:03;;;;;;;0.35;0.35;;;;;;;;;;5958234;28;20044;-79
2023/07/31 04:10:54;;;;;;;0.57;0.57;;;;;;;;;;5958807;28;20047;-78
2023/07/31 04:13:45;;;;;;;6.70;1.38;;;;;;;;;;5957994;28;20051;-77
2023/07/31 04:16:36;;;;;;;1.00;0.73;;;;;;;;;;5957832;28;20048;-78
2023/07/31 04:19:28;;;;;;;2.10;1.02;;;;;;;;;;5958061;28;20086;-78
2023/07/31 04:22:19;;;;;;;0.30;0.30;;;;;;;;;;5957999;28;20054;-78
2023/07/31 04:25:09;;;;;;;0.82;0.57;;;;;;;;;;5939923;28;20054;-77
2023/07/31 04:28:01;;;;;;;0.60;0.60;;;;;;;;;;5958378;28;20043;-78
2023/07/31 04:30:53;;;;;;;0.63;0.50;;;;;;;;;;5958144;28;20089;-78
2023/07/31 04:33:44;;;;;;;1.73;0.77;;;;;;;;;;5957756;28;20429;-78
2023/07/31 04:36:35;;;;;;;1.13;0.93;;;;;;;;;;5958521;28;20040;-77
2023/07/31 04:39:26;;;;;;;0.30;0.30;;;;;;;;;;5962315;28;20070;-77
2023/07/31 04:42:16;;;;;;;0.50;0.50;;;;;;;;;;5962108;28;20418;-77
2023/07/31 04:45:09;;;;;;;0.57;0.57;;;;;;;;;;5962373;28;20751;-78
2023/07/31 04:47:59;;;;;;;1.92;0.63;;;;;;;;;;5962766;28;20044;-78
2023/07/31 04:50:51;;;;;;;1.05;0.82;;;;;;;;;;5962253;28;20454;-79
2023/07/31 04:53:41;;;;;;;0.63;0.63;;;;;;;;;;5943846;28;20039;-78
2023/07/31 04:56:32;;;;;;;0.73;0.73;;;;;;;;;;5961799;28;20126;-80
2023/07/31 04:59:23;;;;;;;3.33;0.95;;;;;;;;;;5961860;28;20047;-77
2023/07/31 05:02:14;;;;;;;6.75;1.05;;;;;;;;;;5961757;28;20096;-78
2023/07/31 05:05:05;;;;;;;0.40;0.35;;;;;;;;;;5961838;28;20442;-78
2023/07/31 05:07:56;;;;;;;0.60;0.47;;;;;;;;;;5962171;28;20051;-78
2023/07/31 05:10:46;;;;;;;2.10;0.80;;;;;;;;;;5961744;28;20043;-78
2023/07/31 05:13:38;;;;;;;0.75;0.57;;;;;;;;;;5961332;28;20386;-77
2023/07/31 05:16:28;;;;;;;0.65;0.50;;;;;;;;;;5961609;28;20070;-78
2023/07/31 05:19:20;;;;;;;0.38;0.38;;;;;;;;;;5961232;28;20092;-78
2023/07/31 05:22:11;;;;;;;1.63;1.08;;;;;;;;;;5961476;28;20533;-78
2023/07/31 05:25:02;;;;;;;1.05;0.60;;;;;;;;;;5961914;28;20050;-78
2023/07/31 05:27:52;;;;;;;0.60;0.60;;;;;;;;;;5961471;28;20063;-78
2023/07/31 05:30:43;;;;;;;0.55;0.45;;;;;;;;;;5961230;28;20083;-78
2023/07/31 05:33:34;;;;;;;1.98;0.93;;;;;;;;;;5960924;28;20378;-78
2023/07/31 05:36:25;;;;;;;1.30;0.57;;;;;;;;;;5961089;28;20040;-78
2023/07/31 05:39:16;;;;;;;1.10;0.90;;;;;;;;;;5942774;28;20048;-77
2023/07/31 05:42:06;;;;;;;3.15;0.90;;;;;;;;;;5960667;28;20058;-77
2023/07/31 05:44:57;;;;;;;0.60;0.60;;;;;;;;;;5943395;28;20047;-77
2023/07/31 05:47:48;;;;;;;1.67;0.70;;;;;;;;;;5960462;28;20051;-79
2023/07/31 05:50:39;;;;;;;2.35;0.88;;;;;;;;;;5960921;28;20481;-78
2023/07/31 05:53:30;;;;;;;0.40;0.40;;;;;;;;;;5960662;28;20048;-78
2023/07/31 05:56:21;;;;;;;0.10;0.10;;;;;;;;;;5960910;28;20494;-78
2023/07/31 05:59:13;;;;;;;1.67;1.10;;;;;;;;;;5960562;28;20048;-77
2023/07/31 06:02:04;;;;;;;0.52;0.38;;;;;;;;;;5942615;28;20051;-78
2023/07/31 06:04:55;;;;;;;1.20;0.57;;;;;;;;;;5961169;28;20058;-78
2023/07/31 06:07:46;;;;;;;1.50;0.90;;;;;;;;;;5960153;28;20047;-78
2023/07/31 06:10:37;;;;;;;0.68;0.38;;;;;;;;;;5960417;28;20122;-78
2023/07/31 06:13:27;;;;;;;2.40;0.85;;;;;;;;;;5931203;28;20786;-79
2023/07/31 06:16:18;;;;;;;2.13;0.85;;;;;;;;;;5958964;28;20056;-79
2023/07/31 06:19:09;;;;;;;0.40;0.40;;;;;;;;;;5924206;28;20044;-78
2023/07/31 06:22:00;;;;;;;0.40;0.40;;;;;;;;;;5942525;28;20070;-78
2023/07/31 06:24:51;;;;;;;0.38;0.38;;;;;;;;;;5960019;28;20054;-78
2023/07/31 06:27:43;;;;;;;0.50;0.50;;;;;;;;;;5960013;28;20524;-79
2023/07/31 06:30:34;;;;;;;3.70;0.85;;;;;;;;;;5941583;28;20043;-78
2023/07/31 06:33:25;;;;;;;0.77;0.40;;;;;;;;;;5959730;28;20043;-78
2023/07/31 06:36:16;;;;;;;1.80;0.40;;;;;;;;;;5959805;28;20047;-78
2023/07/31 06:39:07;;;;;;;1.33;0.55;;;;;;;;;;5959468;28;20050;-78
2023/07/31 06:41:57;;;;;;;0.77;0.68;;;;;;;;;;5960012;28;20078;-78
2023/07/31 06:44:49;;;;;;;0.30;0.30;;;;;;;;;;5959795;28;20052;-80
2023/07/31 06:47:40;;;;;;;0.50;0.40;;;;;;;;;;5959643;28;20043;-78
2023/07/31 06:50:31;;;;;;;0.32;0.32;;;;;;;;;;5959691;28;20047;-78
2023/07/31 06:53:22;;;;;;;1.25;0.40;;;;;;;;;;5959318;28;20525;-79
2023/07/31 06:56:13;;;;;;;0.45;0.45;;;;;;;;;;5959798;28;20044;-77
2023/07/31 06:59:04;;;;;;;1.48;0.30;;;;;;;;;;5959026;28;20436;-79
2023/07/31 07:01:54;;;;;;;0.93;0.30;;;;;;;;;;5960878;28;20389;-79
2023/07/31 07:04:46;;;;;;;6.25;0.90;;;;;;;;;;5959572;28;20066;-78
2023/07/31 07:07:36;;;;;;;2.25;0.77;;;;;;;;;;5959151;28;20047;-77
2023/07/31 07:10:27;;;;;;;1.38;1.08;;;;;;;;;;5959875;28;20043;-78
2023/07/31 07:13:18;;;;;;;0.77;0.55;;;;;;;;;;5959223;28;20056;-78
2023/07/31 07:16:10;;;;;;;0.30;0.28;;;;;;;;;;5960091;28;20062;-79
2023/07/31 07:19:01;;;;;;;0.77;0.77;;;;;;;;;;5960940;28;20382;-80
2023/07/31 07:21:56;;;;;;;0.20;0.20;;;;;;;;;;5960681;28;20141;-76
2023/07/31 07:24:46;;;;;;;0.40;0.40;;;;;;;;;;5959944;28;20463;-79
2023/07/31 07:27:37;;;;;;;1.33;0.55;;;;;;;;;;5958959;28;20047;-78
2023/07/31 07:30:28;;;;;;;0.40;0.25;;;;;;;;;;5959356;28;20054;-78
2023/07/31 07:33:19;;;;;;;0.50;0.50;;;;;;;;;;5958613;28;20135;-78
2023/07/31 07:36:10;;;;;;;0.28;0.25;;;;;;;;;;5959298;28;20051;-78
2023/07/31 07:39:00;;;;;;;0.93;0.40;;;;;;;;;;5959802;28;20043;-78
2023/07/31 07:41:53;;;;;;;2.42;1.00;;;;;;;;;;5959091;28;20050;-79
2023/07/31 07:44:43;;;;;;;0.80;0.40;;;;;;;;;;5959184;28;20059;-78
2023/07/31 07:47:34;;;;;;;2.15;1.00;;;;;;;;;;5958984;28;20047;-81
2023/07/31 07:50:25;;;;;;;0.30;0.28;;;;;;;;;;5959015;28;20049;-79
2023/07/31 07:53:16;;;;;;;0.75;0.70;;;;;;;;;;5958810;28;20048;-78
2023/07/31 07:56:07;;;;;;;0.50;0.38;;;;;;;;;;5959545;28;20054;-80
2023/07/31 07:58:57;;;;;;;1.08;0.70;;;;;;;;;;5941405;28;20244;-78
2023/07/31 08:01:48;;;;;;;0.70;0.38;;;;;;;;;;5958709;28;20081;-80
2023/07/31 08:04:39;;;;;;;0.60;0.38;;;;;;;;;;5958836;28;20058;-79
2023/07/31 08:07:30;;;;;;;2.03;0.28;;;;;;;;;;5958586;28;20044;-79
2023/07/31 08:10:21;;;;;;;0.68;0.50;;;;;;;;;;5959048;28;20047;-79
2023/07/31 08:13:12;;;;;;;0.90;0.52;;;;;;;;;;5964242;28;20054;-78
2023/07/31 08:16:04;;;;;;;0.55;0.38;;;;;;;;;;5946813;28;20099;-79
2023/07/31 08:18:55;;;;;;;0.40;0.20;;;;;;;;;;5963815;28;20126;-77
2023/07/31 08:21:45;;;;;;;0.25;0.20;;;;;;;;;;5963922;28;20063;-76
2023/07/31 08:24:36;;;;;;;0.10;0.10;;;;;;;;;;5963288;28;20052;-79
2023/07/31 08:27:27;;;;;;;0.75;0.63;;;;;;;;;;5963770;28;20493;-78
2023/07/31 08:30:19;;;;;;;0.65;0.35;;;;;;;;;;5963284;28;20135;-78
2023/07/31 08:33:12;;;;;;;0.40;0.30;;;;;;;;;;5945613;28;20452;-78
2023/07/31 08:36:03;;;;;;;0.75;0.47;;;;;;;;;;5963174;28;20048;-78
2023/07/31 08:38:54;;;;;;;0.30;0.30;;;;;;;;;;5964011;28;20051;-77
2023/07/31 08:41:45;;;;;;;3.10;0.73;;;;;;;;;;5962553;28;20071;-79
2023/07/31 08:44:37;;;;;;;1.13;0.63;;;;;;;;;;5962780;28;20096;-78
2023/07/31 08:47:28;;;;;;;0.85;0.40;;;;;;;;;;5944760;28;20035;-77
2023/07/31 08:50:21;;;;;;;9.38;1.10;;;;;;;;;;5963034;28;20399;-77
2023/07/31 08:53:12;;;;;;;1.05;0.82;;;;;;;;;;5962702;28;20043;-79
2023/07/31 08:56:03;;;;;;;1.13;0.63;;;;;;;;;;5962476;28;20486;-79
2023/07/31 08:58:55;;;;;;;1.33;0.70;;;;;;;;;;5945033;28;20049;-78
2023/07/31 09:01:51;;;;;;;0.40;0.20;;;;;;;;;;5963006;28;20487;-78
2023/07/31 09:04:42;;;;;;;0.65;0.52;;;;;;;;;;5963650;28;20046;-80
2023/07/31 09:07:37;;;;;;;4.22;0.60;;;;;;;;;;5944900;28;20490;-78
2023/07/31 09:10:27;;;;;;;2.83;0.70;;;;;;;;;;5963151;28;20039;-78
2023/07/31 09:13:18;;;;;;;2.45;0.47;;;;;;;;;;5962927;28;20052;-78
2023/07/31 09:16:10;;;;;;;20.90;0.73;;;;;;;;;;5962604;28;20055;-79
2023/07/31 09:19:05;;;;;;;4.68;0.90;;;;;;;;;;5963527;28;20134;-78
2023/07/31 09:21:56;;;;;;;4.05;0.90;;;;;;;;;;5962233;28;20059;-79
2023/07/31 09:24:47;;;;;;;4.95;1.33;;;;;;;;;;5943874;28;20092;-77
2023/07/31 09:28:09;;;;;;;1.73;0.50;;;;;;;;;;5961897;28;20054;-78
2023/07/31 09:31:00;;;;;;;2.55;0.60;;;;;;;;;;5962127;28;20058;-78
2023/07/31 09:33:56;;;;;;;1.67;0.20;;;;;;;;;;5961820;28;20043;-78
2023/07/31 09:36:49;;;;;;;1.08;0.20;;;;;;;;;;5944273;28;20051;-77
2023/07/31 09:39:48;;;;;;;0.65;0.38;;;;;;;;;;5961991;28;20050;-78
2023/07/31 09:42:38;;;;;;;0.70;0.25;;;;;;;;;;5961599;28;20440;-78
2023/07/31 09:45:34;;;;;;;6.20;0.43;;;;;;;;;;5961924;28;20044;-78
2023/07/31 09:48:32;;;;;;;9.65;1.30;;;;;;;;;;5945505;28;20054;-79
2023/07/31 09:51:28;;;;;;;0.38;0.25;;;;;;;;;;5944382;28;20047;-79
2023/07/31 09:54:19;;;;;;;1.98;0.90;;;;;;;;;;5961760;28;20055;-79
2023/07/31 09:57:11;;;;;;;4.80;1.05;;;;;;;;;;5961807;28;20071;-77
2023/07/31 10:00:02;;;;;;;5.38;1.48;;;;;;;;;;5962602;28;20051;-79
2023/07/31 10:02:54;;;;;;;0.20;0.20;;;;;;;;;;5943765;28;20466;-78
2023/07/31 10:05:50;;;;;;;0.65;0.65;;;;;;;;;;5943904;28;20055;-79
2023/07/31 10:08:43;;;;;;;0.98;0.75;;;;;;;;;;5943753;28;20050;-78
2023/07/31 10:11:40;;;;;;;7.68;1.23;;;;;;;;;;5961362;28;20055;-79
2023/07/31 10:14:32;;;;;;;1.58;0.52;;;;;;;;;;5943748;28;20062;-79
2023/07/31 10:17:23;;;;;;;1.52;0.40;;;;;;;;;;5961963;28;20158;-77
2023/07/31 10:20:18;;;;;;;1.75;0.63;;;;;;;;;;5943654;28;20040;-78
2023/07/31 10:23:10;;;;;;;1.55;0.57;;;;;;;;;;5943951;28;20051;-78
2023/07/31 10:26:02;;;;;;;0.63;0.30;;;;;;;;;;5961559;28;20058;-77
2023/07/31 10:28:53;;;;;;;0.40;0.22;;;;;;;;;;5944031;28;20386;-80
2023/07/31 10:31:46;;;;;;;1.40;0.30;;;;;;;;;;5961329;28;20118;-78
2023/07/31 10:34:40;;;;;;;2.42;1.17;;;;;;;;;;5960066;28;20044;-79
2023/07/31 10:37:37;;;;;;;0.75;0.45;;;;;;;;;;5943156;28;20104;-78
2023/07/31 10:40:28;;;;;;;0.57;0.20;;;;;;;;;;5961015;28;20048;-77
2023/07/31 10:43:30;;;;;;;0.65;0.30;;;;;;;;;;5960058;28;20052;-78
2023/07/31 10:46:22;;;;;;;1.17;0.50;;;;;;;;;;5943211;28;20126;-78
2023/07/31 10:49:21;;;;;;;0.73;0.17;;;;;;;;;;5960613;28;20052;-78
2023/07/31 10:52:13;;;;;;;1.75;0.45;;;;;;;;;;5961535;28;20482;-79
2023/07/31 10:55:32;;;;;;;1.42;0.60;;;;;;;;;;5943396;28;20417;-77
2023/07/31 10:58:23;;;;;;;5.35;1.15;;;;;;;;;;5943214;28;20069;-78
2023/07/31 11:01:14;;;;;;;0.25;0.25;;;;;;;;;;5960315;28;20044;-79
2023/07/31 11:04:10;;;;;;;0.55;0.10;;;;;;;;;;5961072;28;20070;-80
2023/07/31 11:07:04;;;;;;;0.73;0.40;;;;;;;;;;5943444;28;20051;-79
2023/07/31 11:09:55;;;;;;;0.50;0.30;;;;;;;;;;5961965;28;20054;-79
2023/07/31 11:12:49;;;;;;;1.77;0.13;;;;;;;;;;5942268;28;20051;-78
2023/07/31 11:15:40;;;;;;;0.32;0.30;;;;;;;;;;5960047;28;20843;-78
2023/07/31 11:18:31;;;;;;;0.93;0.30;;;;;;;;;;5942372;28;20126;-79
2023/07/31 11:21:24;;;;;;;0.10;0.10;;;;;;;;;;5959911;28;20107;-79
2023/07/31 11:24:15;;;;;;;0.10;0.10;;;;;;;;;;5941934;28;20071;-79
2023/07/31 11:27:07;;;;;;;0.57;0.47;;;;;;;;;;5960757;28;20058;-77
2023/07/31 11:30:02;;;;;;;4.30;0.55;;;;;;;;;;5934807;28;20051;-78
2023/07/31 11:32:55;;;;;;;1.88;0.90;;;;;;;;;;5960849;28;20051;-78
2023/07/31 11:35:49;;;;;;;0.60;0.20;;;;;;;;;;5960650;28;20043;-78
2023/07/31 11:38:39;;;;;;;0.60;0.50;;;;;;;;;;5959930;28;20182;-76
2023/07/31 11:41:30;;;;;;;0.68;0.50;;;;;;;;;;5959797;28;20390;-77
2023/07/31 11:44:23;;;;;;;1.35;0.40;;;;;;;;;;5959570;28;20062;-77
2023/07/31 11:47:18;;;;;;;0.75;0.32;;;;;;;;;;5959833;28;20043;-78
2023/07/31 11:50:11;;;;;;;2.85;1.08;;;;;;;;;;5960783;28;20048;-78
2023/07/31 11:53:08;;;;;;;0.32;0.20;;;;;;;;;;5960496;28;20054;-79
2023/07/31 11:56:00;;;;;;;0.55;0.28;;;;;;;;;;5943325;28;20449;-79
2023/07/31 11:59:02;;;;;;;1.27;0.35;;;;;;;;;;5943066;28;20040;-78
2023/07/31 12:01:53;;;;;;;0.77;0.40;;;;;;;;;;5960758;28;20085;-77
2023/07/31 12:04:46;;;;;;;0.65;0.40;;;;;;;;;;5960935;28;20047;-78
2023/07/31 12:07:49;;;;;;;0.40;0.38;;;;;;;;;;5960563;28;20043;-78
2023/07/31 12:10:40;;;;;;;0.30;0.30;;;;;;;;;;5943220;28;20150;-79
2023/07/31 12:13:33;;;;;;;0.70;0.68;;;;;;;;;;5959928;28;20111;-78
2023/07/31 12:16:28;;;;;;;2.90;0.43;;;;;;;;;;5961038;28;20127;-77
2023/07/31 12:19:19;;;;;;;1.02;0.45;;;;;;;;;;5960921;28;20085;-78
2023/07/31 12:22:15;;;;;;;0.63;0.40;;;;;;;;;;5960301;28;20055;-78
2023/07/31 12:25:06;;;;;;;0.32;0.30;;;;;;;;;;5960585;28;20047;-76
2023/07/31 12:27:58;;;;;;;1.20;0.47;;;;;;;;;;5952101;28;20131;-78
2023/07/31 12:30:48;;;;;;;1.58;0.88;;;;;;;;;;5942501;28;20063;-78
2023/07/31 12:33:41;;;;;;;2.05;0.47;;;;;;;;;;5954595;28;20058;-77
2023/07/31 12:36:35;;;;;;;0.50;0.30;;;;;;;;;;5951472;28;20398;-74
2023/07/31 12:39:26;;;;;;;1.55;0.40;;;;;;;;;;5957913;28;20043;-76
2023/07/31 12:42:17;;;;;;;4.22;1.15;;;;;;;;;;5949350;28;20056;-77
2023/07/31 12:45:09;;;;;;;1.13;0.52;;;;;;;;;;5920454;28;20047;-77
2023/07/31 12:48:00;;;;;;;0.52;0.20;;;;;;;;;;5934483;28;20070;-76
2023/07/31 12:50:51;;;;;;;0.93;0.50;;;;;;;;;;5916051;28;20048;-75
2023/07/31 12:53:41;;;;;;;0.68;0.43;;;;;;;;;;5933846;28;20055;-76
2023/07/31 12:56:32;;;;;;;0.20;0.20;;;;;;;;;;5908497;28;20467;-77
2023/07/31 12:59:23;;;;;;;0.40;0.20;;;;;;;;;;5928333;28;20044;-75
2023/07/31 13:02:14;;;;;;;2.95;0.85;;;;;;;;;;5938274;28;20391;-74
2023/07/31 13:05:08;;;;;;;0.30;0.20;;;;;;;;;;5922863;28;20052;-78
2023/07/31 13:07:59;;;;;;;0.52;0.30;;;;;;;;;;5939130;28;20372;-75
2023/07/31 13:10:50;;;;;;;4.38;0.40;;;;;;;;;;5939123;28;20204;-77
2023/07/31 13:13:41;;;;;;;0.55;0.40;;;;;;;;;;5937839;28;20075;-75
2023/07/31 13:16:32;;;;;;;3.45;0.30;;;;;;;;;;5938135;28;20048;-76
2023/07/31 13:19:23;;;;;;;0.68;0.30;;;;;;;;;;5938037;28;20044;-76
2023/07/31 13:22:13;;;;;;;2.10;0.40;;;;;;;;;;5937999;28;20478;-76
2023/07/31 13:25:06;;;;;;;0.52;0.50;;;;;;;;;;5937825;28;20047;-76
2023/07/31 13:27:56;;;;;;;1.15;0.55;;;;;;;;;;5917439;28;20052;-76
2023/07/31 13:30:51;;;;;;;0.47;0.30;;;;;;;;;;5938181;28;20364;-77
2023/07/31 13:33:42;;;;;;;0.85;0.45;;;;;;;;;;5936920;28;20044;-78
2023/07/31 13:36:34;;;;;;;0.73;0.32;;;;;;;;;;5933966;28;20439;-77
2023/07/31 13:39:25;;;;;;;0.30;0.10;;;;;;;;;;5921581;28;20041;-76
2023/07/31 13:42:16;;;;;;;1.67;0.60;;;;;;;;;;5934264;28;20487;-78
2023/07/31 13:45:07;;;;;;;0.80;0.70;;;;;;;;;;5935512;28;20052;-78
2023/07/31 13:47:57;;;;;;;0.55;0.35;;;;;;;;;;5936264;28;20109;-78
2023/07/31 13:50:48;;;;;;;1.15;0.40;;;;;;;;;;5937575;28;20050;-78
2023/07/31 13:53:39;;;;;;;0.40;0.30;;;;;;;;;;5934732;28;20051;-78
2023/07/31 13:56:37;;;;;;;;;;;;;;;;;;5935230;28;20101;-76
2023/07/31 13:59:28;;;;;;;1.17;0.50;;;;;;;;;;5937240;28;20030;-77
2023/07/31 14:02:19;;;;;;;0.47;0.43;;;;;;;;;;5937913;28;20399;-77
2023/07/31 14:05:10;;;;;;;2.90;0.95;;;;;;;;;;5937270;28;20520;-77
2023/07/31 14:08:01;;;;;;;0.60;0.40;;;;;;;;;;5937052;28;20048;-76
2023/07/31 14:10:52;;;;;;;3.20;0.80;;;;;;;;;;5925938;28;20055;-78
2023/07/31 14:13:43;;;;;;;3.20;1.65;;;;;;;;;;5937450;28;20046;-79
2023/07/31 14:16:33;;;;;;;0.90;0.38;;;;;;;;;;5936957;28;20068;-78
2023/07/31 14:19:24;;;;;;;0.40;0.30;;;;;;;;;;5935352;28;20174;-76
2023/07/31 14:22:26;;;;;;;1.05;0.70;;;;;;;;;;5935644;28;20121;-76
2023/07/31 14:25:17;;;;;;;0.65;0.30;;;;;;;;;;5936474;28;20048;-76
2023/07/31 14:28:08;;;;;;;2.72;0.98;;;;;;;;;;5935931;28;20425;-77
2023/07/31 14:30:59;;;;;;;1.63;0.55;;;;;;;;;;5936701;28;20044;-77
2023/07/31 14:33:50;;;;;;;0.30;0.30;;;;;;;;;;5936431;28;20047;-74
2023/07/31 14:36:41;;;;;;;0.80;0.70;;;;;;;;;;5934722;28;20048;-75
2023/07/31 14:39:32;;;;;;;1.10;0.30;;;;;;;;;;5918030;28;20044;-75
2023/07/31 14:42:23;;;;;;;0.20;0.10;;;;;;;;;;5934054;28;20070;-73
2023/07/31 14:45:14;;;;;;;0.90;0.60;;;;;;;;;;5937122;28;20052;-75
2023/07/31 14:48:05;;;;;;;0.50;0.43;;;;;;;;;;5932773;28;20056;-74
2023/07/31 14:51:00;;;;;;;4.78;0.45;;;;;;;;;;5926916;28;20044;-75
2023/07/31 14:53:50;;;;;;;3.95;0.73;;;;;;;;;;5936925;28;20052;-76
2023/07/31 14:56:41;;;;;;;0.30;0.30;;;;;;;;;;5907650;28;20377;-78
2023/07/31 14:59:32;;;;;;;2.65;0.45;;;;;;;;;;5929652;28;20058;-76
2023/07/31 15:02:25;;;;;;;2.35;0.75;;;;;;;;;;5928809;28;20040;-75
2023/07/31 15:05:15;;;;;;;8.82;1.15;;;;;;;;;;5908197;28;20389;-75
2023/07/31 15:08:06;;;;;;;0.50;0.45;;;;;;;;;;5936843;28;20509;-75
2023/07/31 15:10:57;;;;;;;2.00;0.85;;;;;;;;;;5935228;28;20036;-75
2023/07/31 15:13:48;;;;;;;2.72;0.52;;;;;;;;;;5937920;28;20356;-77
2023/07/31 15:16:39;;;;;;;4.32;0.43;;;;;;;;;;5933952;28;20055;-74
2023/07/31 15:19:34;;;;;;;0.47;0.35;;;;;;;;;;5930936;28;20048;-75
2023/07/31 15:22:26;;;;;;;0.43;0.38;;;;;;;;;;5932267;28;20048;-74
2023/07/31 15:25:16;;;;;;;0.77;0.15;;;;;;;;;;5935340;28;20044;-75
2023/07/31 15:28:08;;;;;;;2.33;0.68;;;;;;;;;;5933594;28;20040;-77
2023/07/31 15:31:00;;;;;;;0.20;0.20;;;;;;;;;;5933240;28;20039;-73
2023/07/31 15:33:50;;;;;;;4.40;0.40;;;;;;;;;;5934700;28;20584;-76
2023/07/31 15:36:41;;;;;;;0.30;0.30;;;;;;;;;;5932674;28;20054;-77
2023/07/31 15:39:32;;;;;;;2.58;0.40;;;;;;;;;;5932961;28;20048;-74
2023/07/31 15:42:23;;;;;;;1.30;0.90;;;;;;;;;;5935321;28;20040;-78
2023/07/31 15:45:13;;;;;;;0.10;0.10;;;;;;;;;;5932593;28;20426;-75
2023/07/31 15:48:04;;;;;;;0.52;0.35;;;;;;;;;;5932713;28;20054;-74
2023/07/31 15:50:55;;;;;;;2.05;1.00;;;;;;;;;;5933132;28;20144;-75
2023/07/31 15:53:46;;;;;;;2.55;1.13;;;;;;;;;;5932467;28;20126;-76
2023/07/31 15:56:37;;;;;;;5.15;0.90;;;;;;;;;;5933051;28;20047;-75
2023/07/31 15:59:28;;;;;;;0.52;0.35;;;;;;;;;;5933167;28;20123;-74
2023/07/31 16:02:19;;;;;;;0.65;0.45;;;;;;;;;;5930841;28;20063;-75
2023/07/31 16:05:11;;;;;;;0.65;0.45;;;;;;;;;;5912942;28;20051;-74
2023/07/31 16:08:02;;;;;;;0.25;0.20;;;;;;;;;;5932811;28;20044;-75
2023/07/31 16:10:53;;;;;;;0.45;0.30;;;;;;;;;;5931584;28;20058;-75
2023/07/31 16:13:43;;;;;;;1.40;0.75;;;;;;;;;;5930331;28;20082;-77
2023/07/31 16:16:34;;;;;;;0.45;0.10;;;;;;;;;;5932300;28;20059;-78
2023/07/31 16:19:25;;;;;;;0.22;0.22;;;;;;;;;;5932513;28;20170;-76
2023/07/31 16:22:19;;;;;;;2.35;1.00;;;;;;;;;;5932809;28;20046;-75
2023/07/31 16:25:10;;;;;;;1.00;0.45;;;;;;;;;;5932873;28;20051;-78
2023/07/31 16:28:01;;;;;;;3.13;0.50;;;;;;;;;;5932718;28;20040;-74
2023/07/31 16:30:52;;;;;;;2.55;0.50;;;;;;;;;;5932031;28;20375;-76
2023/07/31 16:33:43;;;;;;;0.55;0.38;;;;;;;;;;5934273;28;20059;-74
2023/07/31 16:36:33;;;;;;;1.52;0.40;;;;;;;;;;5937558;28;20040;-76
2023/07/31 16:39:24;;;;;;;1.48;0.45;;;;;;;;;;5937983;28;20520;-77
2023/07/31 16:42:15;;;;;;;0.98;0.60;;;;;;;;;;5932611;28;20048;-76
2023/07/31 16:45:07;;;;;;;0.82;0.45;;;;;;;;;;5920337;28;20044;-77
2023/07/31 16:48:00;;;;;;;0.63;0.30;;;;;;;;;;5956323;28;20511;-76
2023/07/31 16:50:51;;;;;;;0.98;0.52;;;;;;;;;;5961311;28;20035;-77
2023/07/31 16:53:43;;;;;;;4.18;0.60;;;;;;;;;;5959508;28;20486;-81
2023/07/31 16:56:34;;;;;;;5.97;0.63;;;;;;;;;;5957868;28;20047;-74
2023/07/31 16:59:42;;;;;;;;;;;;;;;;;;5962029;28;20047;-77
2023/07/31 17:02:33;;;;;;;1.75;0.80;;;;;;;;;;5960217;28;20365;-75
2023/07/31 17:05:24;;;;;;;1.08;0.60;;;;;;;;;;5960313;28;20109;-76
2023/07/31 17:08:15;;;;;;;3.65;0.70;;;;;;;;;;5960025;28;20109;-77
2023/07/31 17:11:06;;;;;;;0.30;0.22;;;;;;;;;;5961168;28;20551;-75